sensor_id;sensor_type;location;lat;lon;timestamp;temperature;humidity
752;DHT22;360;48.764;9.164;2023-03-23T13:57:00;14.30;11.00
752;DHT22;360;48.764;9.164;2023-03-23T13:59:32;18.10;14.90
752;DHT22;360;48.764;9.164;2023-03-23T14:02:31;18.10;14.70
752;DHT22;360;48.764;9.164;2023-03-23T14:05:09;18.00;14.40
752;DHT22;360;48.764;9.164;2023-03-23T14:07:55;18.00;14.70
752;DHT22;360;48.764;9.164;2023-03-23T14:10:30;18.00;16.10
752;DHT22;360;48.764;9.164;2023-03-23T14:13:00;18.00;15.40
752;DHT22;360;48.764;9.164;2023-03-23T14:15:28;18.00;14.70
752;DHT22;360;48.764;9.164;2023-03-23T14:17:56;18.10;15.70
752;DHT22;360;48.764;9.164;2023-03-23T14:20:26;17.90;15.60
752;DHT22;360;48.764;9.164;2023-03-23T14:22:57;18.10;16.10
752;DHT22;360;48.764;9.164;2023-03-23T14:25:27;18.20;13.40
752;DHT22;360;48.764;9.164;2023-03-23T14:27:56;18.20;10.30
752;DHT22;360;48.764;9.164;2023-03-23T14:30:25;18.20;8.20
752;DHT22;360;48.764;9.164;2023-03-23T14:32:54;18.10;6.10
752;DHT22;360;48.764;9.164;2023-03-23T14:35:32;18.10;6.10
752;DHT22;360;48.764;9.164;2023-03-23T14:37:59;18.20;5.90
752;DHT22;360;48.764;9.164;2023-03-23T14:40:28;18.20;4.50
752;DHT22;360;48.764;9.164;2023-03-23T14:42:56;18.20;4.60
752;DHT22;360;48.764;9.164;2023-03-23T14:45:25;18.30;5.50
752;DHT22;360;48.764;9.164;2023-03-23T14:47:54;18.30;4.20
752;DHT22;360;48.764;9.164;2023-03-23T14:50:26;18.30;5.20
752;DHT22;360;48.764;9.164;2023-03-23T14:52:57;18.20;3.80
752;DHT22;360;48.764;9.164;2023-03-23T14:55:24;18.30;4.80
752;DHT22;360;48.764;9.164;2023-03-23T14:57:54;18.20;2.60
752;DHT22;360;48.764;9.164;2023-03-23T15:00:25;18.20;1.40
752;DHT22;360;48.764;9.164;2023-03-23T15:02:56;18.20;1.00
752;DHT22;360;48.764;9.164;2023-03-23T15:05:28;18.10;1.00
752;DHT22;360;48.764;9.164;2023-03-23T15:08:00;18.20;1.00
752;DHT22;360;48.764;9.164;2023-03-23T15:10:28;18.30;1.00
752;DHT22;360;48.764;9.164;2023-03-23T15:12:55;18.30;1.00
752;DHT22;360;48.764;9.164;2023-03-23T15:15:27;18.30;1.00
752;DHT22;360;48.764;9.164;2023-03-23T15:17:56;18.30;1.00
752;DHT22;360;48.764;9.164;2023-03-23T15:20:25;18.20;1.00
752;DHT22;360;48.764;9.164;2023-03-23T15:22:52;18.30;1.00
752;DHT22;360;48.764;9.164;2023-03-23T15:25:22;18.20;1.00
752;DHT22;360;48.764;9.164;2023-03-23T15:27:51;18.10;1.00
752;DHT22;360;48.764;9.164;2023-03-23T15:30:31;18.10;1.00
752;DHT22;360;48.764;9.164;2023-03-23T15:33:03;18.00;1.00
752;DHT22;360;48.764;9.164;2023-03-23T15:35:34;18.00;1.00
752;DHT22;360;48.764;9.164;2023-03-23T15:38:03;18.00;1.00
752;DHT22;360;48.764;9.164;2023-03-23T15:40:34;18.00;1.00
752;DHT22;360;48.764;9.164;2023-03-23T15:43:07;17.90;1.00
752;DHT22;360;48.764;9.164;2023-03-23T15:45:36;17.90;1.00
752;DHT22;360;48.764;9.164;2023-03-23T15:48:11;17.90;1.00
752;DHT22;360;48.764;9.164;2023-03-23T15:50:40;17.80;1.00
752;DHT22;360;48.764;9.164;2023-03-23T15:53:19;17.70;1.00
752;DHT22;360;48.764;9.164;2023-03-23T15:55:48;17.70;1.00
752;DHT22;360;48.764;9.164;2023-03-23T15:58:15;17.70;1.00
752;DHT22;360;48.764;9.164;2023-03-23T16:00:44;17.70;1.00
752;DHT22;360;48.764;9.164;2023-03-23T16:03:14;17.70;1.00
752;DHT22;360;48.764;9.164;2023-03-23T16:05:43;17.70;1.00
752;DHT22;360;48.764;9.164;2023-03-23T16:08:10;17.60;1.00
752;DHT22;360;48.764;9.164;2023-03-23T16:10:37;17.60;1.00
752;DHT22;360;48.764;9.164;2023-03-23T16:13:04;17.50;1.00
752;DHT22;360;48.764;9.164;2023-03-23T16:15:31;17.50;1.00
752;DHT22;360;48.764;9.164;2023-03-23T16:18:00;17.50;1.00
752;DHT22;360;48.764;9.164;2023-03-23T16:20:28;17.40;1.00
752;DHT22;360;48.764;9.164;2023-03-23T16:22:57;17.40;1.00
752;DHT22;360;48.764;9.164;2023-03-23T16:25:24;17.40;1.00
752;DHT22;360;48.764;9.164;2023-03-23T16:27:51;17.30;1.00
752;DHT22;360;48.764;9.164;2023-03-23T16:30:21;17.30;1.00
752;DHT22;360;48.764;9.164;2023-03-23T16:32:48;17.30;1.00
752;DHT22;360;48.764;9.164;2023-03-23T16:35:16;17.20;1.00
752;DHT22;360;48.764;9.164;2023-03-23T16:37:44;17.20;1.00
752;DHT22;360;48.764;9.164;2023-03-23T16:40:12;17.20;1.00
752;DHT22;360;48.764;9.164;2023-03-23T16:42:39;17.10;1.00
752;DHT22;360;48.764;9.164;2023-03-23T16:45:07;17.10;1.00
752;DHT22;360;48.764;9.164;2023-03-23T16:47:34;17.10;1.00
